sensor_id;sensor_type;location;lat;lon;timestamp;temperature;humidity
3208;DHT22;1616;52.394;9.756;2022-10-23T00:00:30;12.60;1.00
3208;DHT22;1616;52.394;9.756;2022-10-23T00:02:55;12.60;1.00
3208;DHT22;1616;52.394;9.756;2022-10-23T00:05:22;12.60;1.00
3208;DHT22;1616;52.394;9.756;2022-10-23T00:07:50;12.60;1.00
3208;DHT22;1616;52.394;9.756;2022-10-23T00:10:16;12.60;1.00
3208;DHT22;1616;52.394;9.756;2022-10-23T00:12:41;12.60;1.00
3208;DHT22;1616;52.394;9.756;2022-10-23T00:15:07;12.60;1.00
3208;DHT22;1616;52.394;9.756;2022-10-23T00:17:33;12.60;1.00
3208;DHT22;1616;52.394;9.756;2022-10-23T00:19:59;12.60;1.00
3208;DHT22;1616;52.394;9.756;2022-10-23T00:22:26;12.60;1.00
3208;DHT22;1616;52.394;9.756;2022-10-23T00:24:51;12.60;1.00
3208;DHT22;1616;52.394;9.756;2022-10-23T00:27:17;12.60;1.00
3208;DHT22;1616;52.394;9.756;2022-10-23T00:29:44;12.60;1.00
3208;DHT22;1616;52.394;9.756;2022-10-23T00:32:10;12.60;1.00
3208;DHT22;1616;52.394;9.756;2022-10-23T00:34:35;12.60;1.00
3208;DHT22;1616;52.394;9.756;2022-10-23T00:37:01;12.60;1.00
3208;DHT22;1616;52.394;9.756;2022-10-23T00:39:27;12.60;1.00
3208;DHT22;1616;52.394;9.756;2022-10-23T00:41:52;12.60;1.00
3208;DHT22;1616;52.394;9.756;2022-10-23T00:46:47;12.70;1.00
3208;DHT22;1616;52.394;9.756;2022-10-23T00:49:14;12.60;1.00
3208;DHT22;1616;52.394;9.756;2022-10-23T00:51:57;12.60;1.00
3208;DHT22;1616;52.394;9.756;2022-10-23T00:54:26;12.70;1.00
3208;DHT22;1616;52.394;9.756;2022-10-23T00:56:56;12.70;1.00
3208;DHT22;1616;52.394;9.756;2022-10-23T00:59:22;12.70;1.00
3208;DHT22;1616;52.394;9.756;2022-10-23T01:01:48;12.70;1.00
3208;DHT22;1616;52.394;9.756;2022-10-23T01:04:14;12.70;1.00
3208;DHT22;1616;52.394;9.756;2022-10-23T01:07:22;12.70;1.00
3208;DHT22;1616;52.394;9.756;2022-10-23T01:17:59;12.70;1.00
3208;DHT22;1616;52.394;9.756;2022-10-23T01:20:39;12.70;1.00
3208;DHT22;1616;52.394;9.756;2022-10-23T01:28:29;12.70;1.00
3208;DHT22;1616;52.394;9.756;2022-10-23T01:30:57;12.60;1.00
3208;DHT22;1616;52.394;9.756;2022-10-23T01:33:38;12.60;1.00
3208;DHT22;1616;52.394;9.756;2022-10-23T01:36:09;12.60;1.00
3208;DHT22;1616;52.394;9.756;2022-10-23T01:46:13;12.60;1.00
3208;DHT22;1616;52.394;9.756;2022-10-23T01:48:43;12.60;1.00
3208;DHT22;1616;52.394;9.756;2022-10-23T01:51:12;12.60;1.00
3208;DHT22;1616;52.394;9.756;2022-10-23T01:53:42;12.50;1.00
3208;DHT22;1616;52.394;9.756;2022-10-23T01:56:12;12.50;1.00
3208;DHT22;1616;52.394;9.756;2022-10-23T01:58:41;12.50;1.00
3208;DHT22;1616;52.394;9.756;2022-10-23T02:01:10;12.50;1.00
3208;DHT22;1616;52.394;9.756;2022-10-23T02:03:36;12.50;1.00
3208;DHT22;1616;52.394;9.756;2022-10-23T02:06:04;12.50;1.00
3208;DHT22;1616;52.394;9.756;2022-10-23T02:08:30;12.40;1.00
3208;DHT22;1616;52.394;9.756;2022-10-23T02:11:01;12.40;1.00
3208;DHT22;1616;52.394;9.756;2022-10-23T02:16:28;12.40;1.00
3208;DHT22;1616;52.394;9.756;2022-10-23T02:19:18;12.40;1.00
3208;DHT22;1616;52.394;9.756;2022-10-23T02:21:54;12.40;1.00
3208;DHT22;1616;52.394;9.756;2022-10-23T02:27:15;12.40;1.00
3208;DHT22;1616;52.394;9.756;2022-10-23T02:29:46;12.40;1.00
3208;DHT22;1616;52.394;9.756;2022-10-23T02:32:13;12.40;1.00
3208;DHT22;1616;52.394;9.756;2022-10-23T02:34:40;12.40;1.00
3208;DHT22;1616;52.394;9.756;2022-10-23T02:37:06;12.40;1.00
3208;DHT22;1616;52.394;9.756;2022-10-23T02:39:31;12.40;1.00
3208;DHT22;1616;52.394;9.756;2022-10-23T02:42:17;12.40;1.00
3208;DHT22;1616;52.394;9.756;2022-10-23T02:47:49;12.40;1.00
3208;DHT22;1616;52.394;9.756;2022-10-23T02:53:16;12.40;1.00
3208;DHT22;1616;52.394;9.756;2022-10-23T02:58:46;12.40;1.00
3208;DHT22;1616;52.394;9.756;2022-10-23T03:01:20;12.50;1.20
3208;DHT22;1616;52.394;9.756;2022-10-23T03:03:54;12.40;1.30
3208;DHT22;1616;52.394;9.756;2022-10-23T03:06:22;12.50;1.40
3208;DHT22;1616;52.394;9.756;2022-10-23T03:08:57;12.50;1.90
3208;DHT22;1616;52.394;9.756;2022-10-23T03:11:24;12.40;1.20
3208;DHT22;1616;52.394;9.756;2022-10-23T03:13:50;12.50;1.40
3208;DHT22;1616;52.394;9.756;2022-10-23T03:16:16;12.40;1.40
3208;DHT22;1616;52.394;9.756;2022-10-23T03:18:42;12.40;1.40
3208;DHT22;1616;52.394;9.756;2022-10-23T03:21:08;12.40;1.20
3208;DHT22;1616;52.394;9.756;2022-10-23T03:23:34;12.40;1.00
3208;DHT22;1616;52.394;9.756;2022-10-23T03:25:59;12.40;1.00
3208;DHT22;1616;52.394;9.756;2022-10-23T03:28:25;12.30;1.00
3208;DHT22;1616;52.394;9.756;2022-10-23T03:30:51;12.30;1.00
3208;DHT22;1616;52.394;9.756;2022-10-23T03:33:16;12.20;1.00
3208;DHT22;1616;52.394;9.756;2022-10-23T03:35:42;12.20;1.00
3208;DHT22;1616;52.394;9.756;2022-10-23T03:38:08;12.20;1.00
3208;DHT22;1616;52.394;9.756;2022-10-23T03:40:34;12.10;1.30
3208;DHT22;1616;52.394;9.756;2022-10-23T03:43:00;12.10;1.30
3208;DHT22;1616;52.394;9.756;2022-10-23T03:45:25;12.10;1.30
3208;DHT22;1616;52.394;9.756;2022-10-23T03:47:52;12.10;1.60
3208;DHT22;1616;52.394;9.756;2022-10-23T03:50:18;12.10;1.90
3208;DHT22;1616;52.394;9.756;2022-10-23T03:52:44;12.10;2.30
3208;DHT22;1616;52.394;9.756;2022-10-23T03:55:10;12.10;2.40
3208;DHT22;1616;52.394;9.756;2022-10-23T03:57:36;12.10;2.50
3208;DHT22;1616;52.394;9.756;2022-10-23T04:00:05;12.10;2.60
3208;DHT22;1616;52.394;9.756;2022-10-23T04:02:30;12.00;2.50
3208;DHT22;1616;52.394;9.756;2022-10-23T04:04:56;12.00;2.50
3208;DHT22;1616;52.394;9.756;2022-10-23T04:07:22;12.10;2.60
3208;DHT22;1616;52.394;9.756;2022-10-23T04:09:48;12.00;2.70
3208;DHT22;1616;52.394;9.756;2022-10-23T04:12:13;12.00;2.80
3208;DHT22;1616;52.394;9.756;2022-10-23T04:14:39;12.00;3.00
3208;DHT22;1616;52.394;9.756;2022-10-23T04:17:05;12.00;3.10
3208;DHT22;1616;52.394;9.756;2022-10-23T04:19:31;12.00;3.00
3208;DHT22;1616;52.394;9.756;2022-10-23T04:21:56;12.00;3.20
3208;DHT22;1616;52.394;9.756;2022-10-23T04:24:23;12.00;3.30
3208;DHT22;1616;52.394;9.756;2022-10-23T04:26:49;12.00;3.40
3208;DHT22;1616;52.394;9.756;2022-10-23T04:29:16;12.00;3.50
3208;DHT22;1616;52.394;9.756;2022-10-23T04:31:42;12.00;3.60
3208;DHT22;1616;52.394;9.756;2022-10-23T04:34:07;12.00;3.50
3208;DHT22;1616;52.394;9.756;2022-10-23T04:36:33;12.00;3.40
3208;DHT22;1616;52.394;9.756;2022-10-23T04:38:59;11.90;3.40
3208;DHT22;1616;52.394;9.756;2022-10-23T04:41:25;11.90;3.50
3208;DHT22;1616;52.394;9.756;2022-10-23T04:43:51;11.90;3.50
3208;DHT22;1616;52.394;9.756;2022-10-23T04:46:17;11.90;3.60
3208;DHT22;1616;52.394;9.756;2022-10-23T04:48:43;11.80;3.40
3208;DHT22;1616;52.394;9.756;2022-10-23T04:51:09;11.90;3.50
3208;DHT22;1616;52.394;9.756;2022-10-23T04:53:35;11.90;3.50
3208;DHT22;1616;52.394;9.756;2022-10-23T04:56:00;11.80;3.60
3208;DHT22;1616;52.394;9.756;2022-10-23T04:58:27;11.80;3.70
3208;DHT22;1616;52.394;9.756;2022-10-23T05:00:53;11.80;3.70
3208;DHT22;1616;52.394;9.756;2022-10-23T05:03:22;11.80;5.00
3208;DHT22;1616;52.394;9.756;2022-10-23T05:05:48;12.00;6.40
3208;DHT22;1616;52.394;9.756;2022-10-23T05:08:16;12.10;6.90
3208;DHT22;1616;52.394;9.756;2022-10-23T05:10:41;12.30;7.50
3208;DHT22;1616;52.394;9.756;2022-10-23T05:13:07;12.40;6.80
3208;DHT22;1616;52.394;9.756;2022-10-23T05:15:33;12.60;6.90
3208;DHT22;1616;52.394;9.756;2022-10-23T05:18:17;12.60;5.60
3208;DHT22;1616;52.394;9.756;2022-10-23T05:20:44;12.70;5.60
3208;DHT22;1616;52.394;9.756;2022-10-23T05:23:13;12.80;5.70
3208;DHT22;1616;52.394;9.756;2022-10-23T05:25:40;12.90;5.30
3208;DHT22;1616;52.394;9.756;2022-10-23T05:28:06;12.90;4.30
3208;DHT22;1616;52.394;9.756;2022-10-23T05:30:32;12.80;2.80
3208;DHT22;1616;52.394;9.756;2022-10-23T05:33:00;12.70;1.70
3208;DHT22;1616;52.394;9.756;2022-10-23T05:35:27;12.60;1.30
3208;DHT22;1616;52.394;9.756;2022-10-23T05:37:54;12.50;1.30
3208;DHT22;1616;52.394;9.756;2022-10-23T05:40:21;12.40;1.50
3208;DHT22;1616;52.394;9.756;2022-10-23T05:42:46;12.30;1.40
3208;DHT22;1616;52.394;9.756;2022-10-23T05:45:12;12.20;1.40
3208;DHT22;1616;52.394;9.756;2022-10-23T05:47:38;12.20;1.60
3208;DHT22;1616;52.394;9.756;2022-10-23T05:50:04;12.10;2.10
3208;DHT22;1616;52.394;9.756;2022-10-23T05:52:30;12.00;2.00
3208;DHT22;1616;52.394;9.756;2022-10-23T05:54:56;12.00;2.20
3208;DHT22;1616;52.394;9.756;2022-10-23T05:57:21;11.90;3.00
3208;DHT22;1616;52.394;9.756;2022-10-23T05:59:47;12.00;5.20
3208;DHT22;1616;52.394;9.756;2022-10-23T06:02:12;12.20;6.70
3208;DHT22;1616;52.394;9.756;2022-10-23T06:04:38;12.40;6.70
3208;DHT22;1616;52.394;9.756;2022-10-23T06:07:04;12.60;5.90
3208;DHT22;1616;52.394;9.756;2022-10-23T06:09:29;12.70;6.60
3208;DHT22;1616;52.394;9.756;2022-10-23T06:11:55;12.90;7.30
3208;DHT22;1616;52.394;9.756;2022-10-23T06:14:21;13.10;6.10
3208;DHT22;1616;52.394;9.756;2022-10-23T06:16:47;13.20;6.00
3208;DHT22;1616;52.394;9.756;2022-10-23T06:19:12;13.30;5.00
3208;DHT22;1616;52.394;9.756;2022-10-23T06:21:39;13.40;3.60
3208;DHT22;1616;52.394;9.756;2022-10-23T06:24:05;13.40;2.80
3208;DHT22;1616;52.394;9.756;2022-10-23T06:26:31;13.40;2.50
3208;DHT22;1616;52.394;9.756;2022-10-23T06:28:57;13.40;2.10
3208;DHT22;1616;52.394;9.756;2022-10-23T06:31:23;13.40;2.30
3208;DHT22;1616;52.394;9.756;2022-10-23T06:33:56;13.50;2.80
3208;DHT22;1616;52.394;9.756;2022-10-23T06:36:23;13.50;2.20
3208;DHT22;1616;52.394;9.756;2022-10-23T06:38:48;13.50;3.00
3208;DHT22;1616;52.394;9.756;2022-10-23T06:41:16;13.60;3.60
3208;DHT22;1616;52.394;9.756;2022-10-23T06:43:43;13.70;3.30
3208;DHT22;1616;52.394;9.756;2022-10-23T06:46:08;13.80;3.50
3208;DHT22;1616;52.394;9.756;2022-10-23T06:48:35;13.90;4.20
3208;DHT22;1616;52.394;9.756;2022-10-23T06:51:06;14.00;4.20
3208;DHT22;1616;52.394;9.756;2022-10-23T06:53:32;14.20;4.10
3208;DHT22;1616;52.394;9.756;2022-10-23T06:55:59;14.30;3.40
3208;DHT22;1616;52.394;9.756;2022-10-23T06:58:25;14.40;2.80
3208;DHT22;1616;52.394;9.756;2022-10-23T07:00:51;14.50;2.90
3208;DHT22;1616;52.394;9.756;2022-10-23T07:03:16;14.60;3.00
3208;DHT22;1616;52.394;9.756;2022-10-23T07:05:42;14.70;3.10
3208;DHT22;1616;52.394;9.756;2022-10-23T07:08:12;14.80;3.10
3208;DHT22;1616;52.394;9.756;2022-10-23T07:10:39;14.90;2.70
3208;DHT22;1616;52.394;9.756;2022-10-23T07:13:09;14.90;2.20
3208;DHT22;1616;52.394;9.756;2022-10-23T07:15:35;15.00;1.90
3208;DHT22;1616;52.394;9.756;2022-10-23T07:18:01;15.00;2.20
3208;DHT22;1616;52.394;9.756;2022-10-23T07:20:27;15.10;3.30
3208;DHT22;1616;52.394;9.756;2022-10-23T07:22:54;15.20;3.10
3208;DHT22;1616;52.394;9.756;2022-10-23T07:25:24;15.30;2.10
3208;DHT22;1616;52.394;9.756;2022-10-23T07:27:51;15.40;2.00
3208;DHT22;1616;52.394;9.756;2022-10-23T07:30:18;15.50;1.10
3208;DHT22;1616;52.394;9.756;2022-10-23T07:32:44;15.60;1.00
3208;DHT22;1616;52.394;9.756;2022-10-23T07:35:11;15.70;1.00
3208;DHT22;1616;52.394;9.756;2022-10-23T07:37:37;15.70;1.00
3208;DHT22;1616;52.394;9.756;2022-10-23T07:40:04;15.80;1.00
3208;DHT22;1616;52.394;9.756;2022-10-23T07:42:30;15.70;1.00
3208;DHT22;1616;52.394;9.756;2022-10-23T07:44:56;15.80;1.00
3208;DHT22;1616;52.394;9.756;2022-10-23T07:47:22;15.80;1.00
3208;DHT22;1616;52.394;9.756;2022-10-23T07:49:48;15.80;1.00
3208;DHT22;1616;52.394;9.756;2022-10-23T07:52:14;15.80;1.00
3208;DHT22;1616;52.394;9.756;2022-10-23T07:54:39;15.80;1.00
3208;DHT22;1616;52.394;9.756;2022-10-23T07:57:06;15.80;1.00
3208;DHT22;1616;52.394;9.756;2022-10-23T07:59:33;15.80;1.00
3208;DHT22;1616;52.394;9.756;2022-10-23T08:01:59;15.80;1.00
3208;DHT22;1616;52.394;9.756;2022-10-23T08:04:25;15.70;1.00
3208;DHT22;1616;52.394;9.756;2022-10-23T08:06:51;15.70;1.00
3208;DHT22;1616;52.394;9.756;2022-10-23T08:09:16;15.70;1.00
3208;DHT22;1616;52.394;9.756;2022-10-23T08:11:42;15.70;1.00
3208;DHT22;1616;52.394;9.756;2022-10-23T08:14:09;15.80;1.00
3208;DHT22;1616;52.394;9.756;2022-10-23T08:16:36;15.90;1.00
3208;DHT22;1616;52.394;9.756;2022-10-23T08:19:04;16.00;1.00
3208;DHT22;1616;52.394;9.756;2022-10-23T08:21:30;16.10;1.00
3208;DHT22;1616;52.394;9.756;2022-10-23T08:23:57;16.20;1.00
3208;DHT22;1616;52.394;9.756;2022-10-23T08:26:24;16.40;1.00
3208;DHT22;1616;52.394;9.756;2022-10-23T08:28:54;16.60;1.00
3208;DHT22;1616;52.394;9.756;2022-10-23T08:31:21;16.80;1.00
3208;DHT22;1616;52.394;9.756;2022-10-23T08:33:47;17.00;1.00
3208;DHT22;1616;52.394;9.756;2022-10-23T08:36:25;17.10;1.00
3208;DHT22;1616;52.394;9.756;2022-10-23T08:38:53;17.30;1.00
3208;DHT22;1616;52.394;9.756;2022-10-23T08:43:55;17.40;1.00
3208;DHT22;1616;52.394;9.756;2022-10-23T08:46:26;17.60;1.00
3208;DHT22;1616;52.394;9.756;2022-10-23T08:49:19;17.70;1.00
3208;DHT22;1616;52.394;9.756;2022-10-23T08:51:49;17.90;1.00
3208;DHT22;1616;52.394;9.756;2022-10-23T08:54:34;18.00;1.00
3208;DHT22;1616;52.394;9.756;2022-10-23T08:57:12;18.10;1.00
3208;DHT22;1616;52.394;9.756;2022-10-23T08:59:45;18.30;1.00
3208;DHT22;1616;52.394;9.756;2022-10-23T09:02:22;18.40;1.00
3208;DHT22;1616;52.394;9.756;2022-10-23T09:04:51;18.50;1.00
3208;DHT22;1616;52.394;9.756;2022-10-23T09:07:24;18.60;1.00
3208;DHT22;1616;52.394;9.756;2022-10-23T09:12:30;18.90;1.00
3208;DHT22;1616;52.394;9.756;2022-10-23T09:15:35;19.00;1.00
3208;DHT22;1616;52.394;9.756;2022-10-23T09:18:15;19.00;1.00
3208;DHT22;1616;52.394;9.756;2022-10-23T09:20:44;19.00;1.00
3208;DHT22;1616;52.394;9.756;2022-10-23T09:23:22;19.00;1.00
3208;DHT22;1616;52.394;9.756;2022-10-23T09:25:49;19.20;1.00
3208;DHT22;1616;52.394;9.756;2022-10-23T09:28:25;19.30;1.00
3208;DHT22;1616;52.394;9.756;2022-10-23T09:30:51;19.50;1.00
3208;DHT22;1616;52.394;9.756;2022-10-23T09:36:02;19.80;1.00
3208;DHT22;1616;52.394;9.756;2022-10-23T09:38:34;20.00;1.00
3208;DHT22;1616;52.394;9.756;2022-10-23T09:41:27;20.10;1.00
3208;DHT22;1616;52.394;9.756;2022-10-23T09:46:57;20.10;1.00
3208;DHT22;1616;52.394;9.756;2022-10-23T09:49:29;20.10;1.00
3208;DHT22;1616;52.394;9.756;2022-10-23T09:52:28;20.00;1.00
3208;DHT22;1616;52.394;9.756;2022-10-23T09:54:56;19.90;1.00
3208;DHT22;1616;52.394;9.756;2022-10-23T09:57:32;19.80;1.00
3208;DHT22;1616;52.394;9.756;2022-10-23T10:02:59;19.60;1.00
3208;DHT22;1616;52.394;9.756;2022-10-23T10:05:30;19.60;1.00
3208;DHT22;1616;52.394;9.756;2022-10-23T10:08:03;19.50;1.00
3208;DHT22;1616;52.394;9.756;2022-10-23T10:14:02;19.40;1.00
3208;DHT22;1616;52.394;9.756;2022-10-23T10:16:49;19.30;1.00
3208;DHT22;1616;52.394;9.756;2022-10-23T10:22:31;19.30;1.00
3208;DHT22;1616;52.394;9.756;2022-10-23T10:31:04;19.00;1.00
3208;DHT22;1616;52.394;9.756;2022-10-23T10:38:53;19.10;1.00
3208;DHT22;1616;52.394;9.756;2022-10-23T10:41:48;19.10;1.00
3208;DHT22;1616;52.394;9.756;2022-10-23T10:47:31;19.50;1.00
3208;DHT22;1616;52.394;9.756;2022-10-23T10:50:02;19.70;1.00
3208;DHT22;1616;52.394;9.756;2022-10-23T10:58:27;20.50;1.00
3208;DHT22;1616;52.394;9.756;2022-10-23T11:00:59;20.80;1.00
3208;DHT22;1616;52.394;9.756;2022-10-23T11:03:57;21.00;1.00
3208;DHT22;1616;52.394;9.756;2022-10-23T11:06:27;21.10;1.00
3208;DHT22;1616;52.394;9.756;2022-10-23T11:08:54;21.20;1.00
3208;DHT22;1616;52.394;9.756;2022-10-23T11:11:23;21.40;1.00
3208;DHT22;1616;52.394;9.756;2022-10-23T11:13:51;21.60;1.00
3208;DHT22;1616;52.394;9.756;2022-10-23T11:16:25;21.80;1.00
3208;DHT22;1616;52.394;9.756;2022-10-23T11:19:11;21.90;1.00
3208;DHT22;1616;52.394;9.756;2022-10-23T11:22:09;22.00;1.00
3208;DHT22;1616;52.394;9.756;2022-10-23T11:30:28;21.80;1.00
3208;DHT22;1616;52.394;9.756;2022-10-23T11:38:28;22.30;1.00
3208;DHT22;1616;52.394;9.756;2022-10-23T11:41:15;22.30;1.00
3208;DHT22;1616;52.394;9.756;2022-10-23T11:43:51;22.20;1.00
3208;DHT22;1616;52.394;9.756;2022-10-23T11:48:53;21.90;1.00
3208;DHT22;1616;52.394;9.756;2022-10-23T11:51:35;21.90;1.00
3208;DHT22;1616;52.394;9.756;2022-10-23T11:54:20;21.90;1.00
3208;DHT22;1616;52.394;9.756;2022-10-23T12:02:26;22.10;1.00
3208;DHT22;1616;52.394;9.756;2022-10-23T12:04:54;22.40;1.00
3208;DHT22;1616;52.394;9.756;2022-10-23T12:07:34;22.80;1.00
3208;DHT22;1616;52.394;9.756;2022-10-23T12:10:22;23.30;1.00
3208;DHT22;1616;52.394;9.756;2022-10-23T12:12:58;23.90;1.00
3208;DHT22;1616;52.394;9.756;2022-10-23T12:15:25;24.50;1.00
3208;DHT22;1616;52.394;9.756;2022-10-23T12:17:54;25.00;1.00
3208;DHT22;1616;52.394;9.756;2022-10-23T12:20:58;25.40;1.00
3208;DHT22;1616;52.394;9.756;2022-10-23T12:39:32;24.70;1.00
3208;DHT22;1616;52.394;9.756;2022-10-23T12:42:03;24.20;1.00
3208;DHT22;1616;52.394;9.756;2022-10-23T12:44:29;23.80;1.00
3208;DHT22;1616;52.394;9.756;2022-10-23T12:46:57;23.60;1.00
3208;DHT22;1616;52.394;9.756;2022-10-23T12:49:26;23.30;1.00
3208;DHT22;1616;52.394;9.756;2022-10-23T12:52:05;23.00;1.00
3208;DHT22;1616;52.394;9.756;2022-10-23T12:54:38;22.80;1.00
3208;DHT22;1616;52.394;9.756;2022-10-23T12:59:46;22.30;1.00
3208;DHT22;1616;52.394;9.756;2022-10-23T13:02:25;22.10;1.00
3208;DHT22;1616;52.394;9.756;2022-10-23T13:04:53;21.90;1.00
3208;DHT22;1616;52.394;9.756;2022-10-23T13:07:24;21.60;1.00
3208;DHT22;1616;52.394;9.756;2022-10-23T13:09:50;21.40;1.00
3208;DHT22;1616;52.394;9.756;2022-10-23T13:12:25;21.20;1.00
3208;DHT22;1616;52.394;9.756;2022-10-23T13:15:01;21.00;1.00
3208;DHT22;1616;52.394;9.756;2022-10-23T13:20:36;20.70;1.00
3208;DHT22;1616;52.394;9.756;2022-10-23T13:25:55;20.50;1.00
3208;DHT22;1616;52.394;9.756;2022-10-23T13:28:24;20.40;1.00
3208;DHT22;1616;52.394;9.756;2022-10-23T13:33:46;20.40;1.00
3208;DHT22;1616;52.394;9.756;2022-10-23T13:38:44;20.30;1.00
3208;DHT22;1616;52.394;9.756;2022-10-23T13:41:18;20.30;1.00
3208;DHT22;1616;52.394;9.756;2022-10-23T13:43:45;20.30;1.00
3208;DHT22;1616;52.394;9.756;2022-10-23T13:46:19;20.30;1.00
3208;DHT22;1616;52.394;9.756;2022-10-23T13:48:47;20.20;1.00
3208;DHT22;1616;52.394;9.756;2022-10-23T13:51:23;20.20;1.00
3208;DHT22;1616;52.394;9.756;2022-10-23T13:53:50;20.10;1.00
3208;DHT22;1616;52.394;9.756;2022-10-23T13:56:19;20.10;1.00
3208;DHT22;1616;52.394;9.756;2022-10-23T13:58:45;20.00;1.00
3208;DHT22;1616;52.394;9.756;2022-10-23T14:01:25;19.90;1.00
3208;DHT22;1616;52.394;9.756;2022-10-23T14:03:52;19.90;1.00
3208;DHT22;1616;52.394;9.756;2022-10-23T14:06:18;19.80;1.00
3208;DHT22;1616;52.394;9.756;2022-10-23T14:08:44;19.80;1.00
3208;DHT22;1616;52.394;9.756;2022-10-23T14:11:11;19.80;1.00
3208;DHT22;1616;52.394;9.756;2022-10-23T14:13:37;19.70;1.00
3208;DHT22;1616;52.394;9.756;2022-10-23T14:16:03;19.70;1.00
3208;DHT22;1616;52.394;9.756;2022-10-23T14:18:29;19.70;1.00
3208;DHT22;1616;52.394;9.756;2022-10-23T14:21:02;19.60;1.00
3208;DHT22;1616;52.394;9.756;2022-10-23T14:23:28;19.60;1.00
3208;DHT22;1616;52.394;9.756;2022-10-23T14:25:53;19.50;1.00
3208;DHT22;1616;52.394;9.756;2022-10-23T14:28:25;19.50;1.00
3208;DHT22;1616;52.394;9.756;2022-10-23T14:30:52;19.50;1.00
3208;DHT22;1616;52.394;9.756;2022-10-23T14:33:17;19.40;1.00
3208;DHT22;1616;52.394;9.756;2022-10-23T14:35:43;19.40;1.00
3208;DHT22;1616;52.394;9.756;2022-10-23T14:38:09;19.40;1.00
3208;DHT22;1616;52.394;9.756;2022-10-23T14:40:38;19.40;1.00
3208;DHT22;1616;52.394;9.756;2022-10-23T14:43:04;19.40;1.00
3208;DHT22;1616;52.394;9.756;2022-10-23T14:45:30;19.30;1.00
3208;DHT22;1616;52.394;9.756;2022-10-23T14:47:56;19.30;1.00
3208;DHT22;1616;52.394;9.756;2022-10-23T14:50:22;19.30;1.00
3208;DHT22;1616;52.394;9.756;2022-10-23T14:52:48;19.30;1.00
3208;DHT22;1616;52.394;9.756;2022-10-23T14:55:13;19.30;1.00
3208;DHT22;1616;52.394;9.756;2022-10-23T14:57:39;19.20;1.00
3208;DHT22;1616;52.394;9.756;2022-10-23T15:00:05;19.10;1.00
3208;DHT22;1616;52.394;9.756;2022-10-23T15:02:32;19.20;1.00
3208;DHT22;1616;52.394;9.756;2022-10-23T15:04:57;19.10;1.00
3208;DHT22;1616;52.394;9.756;2022-10-23T15:07:23;19.10;1.00
3208;DHT22;1616;52.394;9.756;2022-10-23T15:09:49;19.10;1.00
3208;DHT22;1616;52.394;9.756;2022-10-23T15:12:17;19.10;1.00
3208;DHT22;1616;52.394;9.756;2022-10-23T15:14:42;19.10;1.00
3208;DHT22;1616;52.394;9.756;2022-10-23T15:17:08;19.10;1.00
3208;DHT22;1616;52.394;9.756;2022-10-23T15:19:35;19.10;1.00
3208;DHT22;1616;52.394;9.756;2022-10-23T15:22:00;19.10;1.00
3208;DHT22;1616;52.394;9.756;2022-10-23T15:24:27;19.10;1.00
3208;DHT22;1616;52.394;9.756;2022-10-23T15:26:53;19.10;1.00
3208;DHT22;1616;52.394;9.756;2022-10-23T15:29:19;19.10;1.00
3208;DHT22;1616;52.394;9.756;2022-10-23T15:31:56;19.20;1.00
3208;DHT22;1616;52.394;9.756;2022-10-23T15:34:25;19.20;1.00
3208;DHT22;1616;52.394;9.756;2022-10-23T15:36:52;19.30;1.00
3208;DHT22;1616;52.394;9.756;2022-10-23T15:39:21;19.30;1.00
3208;DHT22;1616;52.394;9.756;2022-10-23T15:41:49;19.20;1.00
3208;DHT22;1616;52.394;9.756;2022-10-23T15:44:17;19.20;1.00
3208;DHT22;1616;52.394;9.756;2022-10-23T15:46:45;19.20;1.00
3208;DHT22;1616;52.394;9.756;2022-10-23T15:49:12;19.00;1.00
3208;DHT22;1616;52.394;9.756;2022-10-23T15:51:38;19.00;1.00
3208;DHT22;1616;52.394;9.756;2022-10-23T15:54:05;18.90;1.00
3208;DHT22;1616;52.394;9.756;2022-10-23T15:56:32;18.80;1.00
3208;DHT22;1616;52.394;9.756;2022-10-23T15:58:58;18.70;1.00
3208;DHT22;1616;52.394;9.756;2022-10-23T16:01:23;18.60;1.00
3208;DHT22;1616;52.394;9.756;2022-10-23T16:03:49;18.50;1.00
3208;DHT22;1616;52.394;9.756;2022-10-23T16:06:16;18.40;1.00
3208;DHT22;1616;52.394;9.756;2022-10-23T16:08:42;18.30;1.00
3208;DHT22;1616;52.394;9.756;2022-10-23T16:11:29;18.20;1.00
3208;DHT22;1616;52.394;9.756;2022-10-23T16:13:57;18.10;1.00
3208;DHT22;1616;52.394;9.756;2022-10-23T16:16:25;18.10;1.00
3208;DHT22;1616;52.394;9.756;2022-10-23T16:18:51;18.00;1.00
3208;DHT22;1616;52.394;9.756;2022-10-23T16:21:23;17.90;1.00
3208;DHT22;1616;52.394;9.756;2022-10-23T16:23:50;17.90;1.00
3208;DHT22;1616;52.394;9.756;2022-10-23T16:26:17;17.90;1.00
3208;DHT22;1616;52.394;9.756;2022-10-23T16:28:42;17.90;1.00
3208;DHT22;1616;52.394;9.756;2022-10-23T16:31:12;17.90;1.00
3208;DHT22;1616;52.394;9.756;2022-10-23T16:33:38;17.90;1.00
3208;DHT22;1616;52.394;9.756;2022-10-23T16:36:05;17.90;1.00
3208;DHT22;1616;52.394;9.756;2022-10-23T16:38:33;17.90;1.00
3208;DHT22;1616;52.394;9.756;2022-10-23T16:40:59;17.90;1.00
3208;DHT22;1616;52.394;9.756;2022-10-23T16:43:26;18.00;1.00
3208;DHT22;1616;52.394;9.756;2022-10-23T16:48:30;18.00;1.00
3208;DHT22;1616;52.394;9.756;2022-10-23T16:50:56;18.00;1.00
3208;DHT22;1616;52.394;9.756;2022-10-23T16:53:22;18.00;1.00
3208;DHT22;1616;52.394;9.756;2022-10-23T16:55:56;17.90;1.00
3208;DHT22;1616;52.394;9.756;2022-10-23T16:58:26;17.90;1.00
3208;DHT22;1616;52.394;9.756;2022-10-23T17:00:56;17.80;1.00
3208;DHT22;1616;52.394;9.756;2022-10-23T17:03:22;17.60;1.00
3208;DHT22;1616;52.394;9.756;2022-10-23T17:05:48;17.60;1.00
3208;DHT22;1616;52.394;9.756;2022-10-23T17:08:14;17.50;1.00
3208;DHT22;1616;52.394;9.756;2022-10-23T17:10:40;17.40;1.00
3208;DHT22;1616;52.394;9.756;2022-10-23T17:13:06;17.30;1.00
3208;DHT22;1616;52.394;9.756;2022-10-23T17:15:33;17.20;1.00
3208;DHT22;1616;52.394;9.756;2022-10-23T17:17:58;17.00;1.00
3208;DHT22;1616;52.394;9.756;2022-10-23T17:20:24;17.10;1.00
3208;DHT22;1616;52.394;9.756;2022-10-23T17:22:50;17.00;1.00
3208;DHT22;1616;52.394;9.756;2022-10-23T17:25:16;17.00;1.00
3208;DHT22;1616;52.394;9.756;2022-10-23T17:27:44;16.90;1.00
3208;DHT22;1616;52.394;9.756;2022-10-23T17:30:11;16.90;1.00
3208;DHT22;1616;52.394;9.756;2022-10-23T17:32:37;16.80;1.00
3208;DHT22;1616;52.394;9.756;2022-10-23T17:35:07;16.80;1.00
3208;DHT22;1616;52.394;9.756;2022-10-23T17:37:32;16.70;1.00
3208;DHT22;1616;52.394;9.756;2022-10-23T17:39:58;16.70;1.00
3208;DHT22;1616;52.394;9.756;2022-10-23T17:42:27;16.70;1.00
3208;DHT22;1616;52.394;9.756;2022-10-23T17:44:54;16.70;1.00
3208;DHT22;1616;52.394;9.756;2022-10-23T17:47:19;16.70;1.00
3208;DHT22;1616;52.394;9.756;2022-10-23T17:49:45;16.80;1.00
3208;DHT22;1616;52.394;9.756;2022-10-23T17:52:10;16.80;1.00
3208;DHT22;1616;52.394;9.756;2022-10-23T17:54:39;16.80;1.00
3208;DHT22;1616;52.394;9.756;2022-10-23T17:57:05;16.90;1.00
3208;DHT22;1616;52.394;9.756;2022-10-23T17:59:30;16.90;1.00
3208;DHT22;1616;52.394;9.756;2022-10-23T18:01:56;16.90;1.00
3208;DHT22;1616;52.394;9.756;2022-10-23T18:04:24;16.90;1.00
3208;DHT22;1616;52.394;9.756;2022-10-23T18:06:51;16.80;1.00
3208;DHT22;1616;52.394;9.756;2022-10-23T18:09:18;16.80;1.00
3208;DHT22;1616;52.394;9.756;2022-10-23T18:11:45;16.70;1.00
3208;DHT22;1616;52.394;9.756;2022-10-23T18:14:11;16.60;1.00
3208;DHT22;1616;52.394;9.756;2022-10-23T18:16:37;16.60;1.00
3208;DHT22;1616;52.394;9.756;2022-10-23T18:19:04;16.50;1.00
3208;DHT22;1616;52.394;9.756;2022-10-23T18:21:30;16.40;1.00
3208;DHT22;1616;52.394;9.756;2022-10-23T18:24:00;16.30;1.00
3208;DHT22;1616;52.394;9.756;2022-10-23T18:26:28;16.20;1.00
3208;DHT22;1616;52.394;9.756;2022-10-23T18:28:56;16.10;1.00
3208;DHT22;1616;52.394;9.756;2022-10-23T18:31:24;16.10;1.00
3208;DHT22;1616;52.394;9.756;2022-10-23T18:33:59;16.00;1.00
3208;DHT22;1616;52.394;9.756;2022-10-23T18:36:28;15.90;1.00
3208;DHT22;1616;52.394;9.756;2022-10-23T18:38:55;15.90;1.00